createdAt,value
2016-06-29T00:00:56.706Z,84.92
2016-06-29T00:01:56.723Z,85.02
2016-06-29T00:02:56.720Z,84.74
2016-06-29T00:03:56.712Z,85.02
2016-06-29T00:04:56.734Z,85.31
2016-06-29T00:05:56.718Z,85.12
2016-06-29T00:06:56.722Z,85.21
2016-06-29T00:07:56.727Z,85.79
2016-06-29T00:08:56.740Z,85.5
2016-06-29T00:09:56.718Z,85.54
2016-06-29T00:10:56.735Z,85.35
2016-06-29T00:11:56.730Z,85.35
2016-06-29T00:12:56.727Z,85.64
2016-06-29T00:13:56.726Z,85.93
2016-06-29T00:14:56.733Z,85.74
2016-06-29T00:15:56.729Z,85.64
2016-06-29T00:16:56.730Z,85.93
2016-06-29T00:17:56.742Z,85.25
2016-06-29T00:18:56.731Z,85.25
2016-06-29T00:19:56.739Z,85.25
2016-06-29T00:20:56.735Z,85.11
2016-06-29T00:21:56.746Z,84.78
2016-06-29T00:22:56.741Z,85.16
2016-06-29T00:23:56.751Z,84.44
2016-06-29T00:24:56.750Z,84.63
2016-06-29T00:25:56.757Z,84.25
2016-06-29T00:26:56.744Z,84.53
2016-06-29T00:27:56.754Z,84.63
2016-06-29T00:28:56.764Z,84.25
2016-06-29T00:29:56.760Z,84.53
2016-06-29T00:30:56.759Z,84.72
2016-06-29T00:31:56.758Z,84.25
2016-06-29T00:32:56.781Z,84.05
2016-06-29T00:33:56.763Z,83.95
2016-06-29T00:34:56.764Z,83.95
2016-06-29T00:35:56.770Z,83.86
2016-06-29T00:36:56.773Z,83.86
2016-06-29T00:37:56.769Z,83.86
2016-06-29T00:38:56.772Z,84.15
2016-06-29T00:39:56.776Z,83.76
2016-06-29T00:40:56.788Z,83.48
2016-06-29T00:41:56.796Z,83.81
2016-06-29T00:42:56.781Z,83.71
2016-06-29T00:43:56.782Z,83.71
2016-06-29T00:44:56.775Z,83.14
2016-06-29T00:45:56.783Z,83.14
2016-06-29T00:46:56.782Z,82.85
2016-06-29T00:47:56.798Z,82.94
2016-06-29T00:48:56.786Z,83.04
2016-06-29T00:49:56.793Z,83.23
2016-06-29T00:50:56.822Z,82.56
2016-06-29T00:51:56.797Z,82.46
2016-06-29T00:52:56.789Z,82.75
2016-06-29T00:53:56.805Z,82.12
2016-06-29T00:54:56.795Z,82.6
2016-06-29T00:55:56.800Z,82.03
2016-06-29T00:56:56.797Z,81.54
2016-06-29T00:57:56.804Z,81.84
2016-06-29T00:58:56.794Z,81.93
2016-06-29T00:59:56.808Z,81.45
2016-06-29T01:00:56.815Z,81.54
2016-06-29T01:01:56.820Z,81.35
2016-06-29T01:02:56.811Z,81.16
2016-06-29T01:03:56.817Z,81.35
2016-06-29T01:04:56.811Z,81.16
2016-06-29T01:05:56.814Z,81.26
2016-06-29T01:06:56.822Z,81.26
2016-06-29T01:07:56.837Z,81.16
2016-06-29T01:08:56.837Z,81.16
2016-06-29T01:09:56.826Z,81.26
2016-06-29T01:10:56.841Z,80.97
2016-06-29T01:11:56.825Z,81.07
2016-06-29T01:12:56.831Z,81.07
2016-06-29T01:13:56.837Z,81.35
2016-06-29T01:14:56.843Z,81.35
2016-06-29T01:15:56.826Z,81.26
2016-06-29T01:16:56.830Z,81.45
2016-06-29T01:17:56.892Z,81.84
2016-06-29T01:18:56.834Z,81.93
2016-06-29T01:19:56.840Z,81.93
2016-06-29T01:20:56.835Z,82.03
2016-06-29T01:21:56.846Z,81.54
2016-06-29T01:22:56.842Z,81.07
2016-06-29T01:23:56.870Z,81.35
2016-06-29T01:24:56.841Z,80.87
2016-06-29T01:25:56.842Z,81.07
2016-06-29T01:26:56.846Z,80.68
2016-06-29T01:27:56.853Z,80.15
2016-06-29T01:28:56.865Z,80.11
2016-06-29T01:29:56.857Z,80.24
2016-06-29T01:30:56.850Z,80.43
2016-06-29T01:31:56.866Z,80.63
2016-06-29T01:32:56.862Z,80.58
2016-06-29T01:33:56.861Z,80.53
2016-06-29T01:34:56.859Z,80.53
2016-06-29T01:35:56.864Z,80.63
2016-06-29T01:36:56.863Z,80.68
2016-06-29T01:37:56.867Z,79.67
2016-06-29T01:38:56.866Z,80.24
2016-06-29T01:39:56.865Z,80.2
2016-06-29T01:40:56.865Z,79.63
2016-06-29T01:41:56.876Z,79.72
2016-06-29T01:42:56.876Z,79.67
2016-06-29T01:43:56.879Z,80.01
2016-06-29T01:44:56.883Z,79.53
2016-06-29T01:45:56.876Z,79.53
2016-06-29T01:46:56.882Z,79.53
2016-06-29T01:47:56.883Z,79.44
2016-06-29T01:48:56.885Z,79.44
2016-06-29T01:49:56.884Z,79.24
2016-06-29T01:50:56.883Z,79.53
2016-06-29T01:51:56.886Z,79.82
2016-06-29T01:52:56.894Z,80.01
2016-06-29T01:53:56.890Z,79.91
2016-06-29T01:54:56.886Z,80.01
2016-06-29T01:55:56.903Z,79.63
2016-06-29T01:56:56.906Z,80.01
2016-06-29T01:57:56.905Z,79.82
2016-06-29T01:58:56.898Z,79.82
2016-06-29T01:59:56.918Z,80.68
2016-06-29T02:00:56.899Z,80.58
2016-06-29T02:01:56.899Z,80.78
2016-06-29T02:02:56.903Z,79.82
2016-06-29T02:03:56.902Z,80.01
2016-06-29T02:04:56.913Z,80.2
2016-06-29T02:05:56.909Z,80.11
2016-06-29T02:06:56.907Z,79.63
2016-06-29T02:07:56.918Z,79.82
2016-06-29T02:08:56.918Z,80.01
2016-06-29T02:09:56.917Z,80.01
2016-06-29T02:10:56.930Z,80.11
2016-06-29T02:11:56.933Z,79.82
2016-06-29T02:12:56.920Z,80.01
2016-06-29T02:13:56.925Z,79.72
2016-06-29T02:14:56.931Z,80.11
2016-06-29T02:15:56.923Z,80.58
2016-06-29T02:16:56.322Z,80.4
2016-06-29T02:17:56.935Z,80.49
2016-06-29T02:18:56.936Z,80.49
2016-06-29T02:19:56.942Z,80.3
2016-06-29T02:20:56.932Z,80.49
2016-06-29T02:21:56.993Z,80.4
2016-06-29T02:22:56.943Z,80.4
2016-06-29T02:23:56.942Z,80.4
2016-06-29T02:24:56.941Z,80.01
2016-06-29T02:25:56.963Z,81.16
2016-06-29T02:26:56.941Z,80.58
2016-06-29T02:27:56.948Z,80.58
2016-06-29T02:28:56.944Z,80.58
2016-06-29T02:29:56.948Z,80.97
2016-06-29T02:30:56.944Z,80.87
2016-06-29T02:31:56.953Z,80.87
2016-06-29T02:32:56.946Z,81.26
2016-06-29T02:33:56.955Z,81.26
2016-06-29T02:34:56.971Z,80.97
2016-06-29T02:35:56.966Z,81.22
2016-06-29T02:36:56.961Z,81.26
2016-06-29T02:37:56.963Z,81.07
2016-06-29T02:38:56.962Z,81.16
2016-06-29T02:39:56.963Z,81.26
2016-06-29T02:40:56.967Z,81.35
2016-06-29T02:41:56.973Z,81.22
2016-06-29T02:42:56.977Z,81.26
2016-06-29T02:43:56.978Z,81.07
2016-06-29T02:44:56.980Z,80.97
2016-06-29T02:45:56.975Z,81.35
2016-06-29T02:46:56.977Z,81.35
2016-06-29T02:47:56.979Z,80.87
2016-06-29T02:48:56.975Z,80.97
2016-06-29T02:49:57.029Z,80.97
2016-06-29T02:50:56.986Z,81.07
2016-06-29T02:51:57.050Z,80.58
2016-06-29T02:52:56.990Z,80.68
2016-06-29T02:53:56.993Z,80.58
2016-06-29T02:54:56.999Z,80.49
2016-06-29T02:55:56.995Z,80.3
2016-06-29T02:56:57.014Z,80.58
2016-06-29T02:57:56.996Z,80.11
2016-06-29T02:58:57.002Z,79.53
2016-06-29T02:59:57.015Z,79.53
2016-06-29T03:00:57.003Z,79.53
2016-06-29T03:01:57.026Z,79.34
2016-06-29T03:02:57.006Z,78.96
2016-06-29T03:03:57.029Z,78.9
2016-06-29T03:04:57.019Z,78.52
2016-06-29T03:05:57.009Z,78.32
2016-06-29T03:06:57.007Z,77.84
2016-06-29T03:07:57.022Z,77.75
2016-06-29T03:08:57.023Z,77.08
2016-06-29T03:09:57.024Z,77.46
2016-06-29T03:10:57.024Z,76.88
2016-06-29T03:11:57.026Z,76.31
2016-06-29T03:12:57.023Z,76.21
2016-06-29T03:13:57.024Z,76.12
2016-06-29T03:14:57.019Z,75.92
2016-06-29T03:15:57.030Z,75.63
2016-06-29T03:16:57.031Z,75.82
2016-06-29T03:17:57.146Z,75.15
2016-06-29T03:18:57.034Z,75.54
2016-06-29T03:19:57.053Z,75
2016-06-29T03:20:57.038Z,75.15
2016-06-29T03:21:57.058Z,75.45
2016-06-29T03:22:57.044Z,75.15
2016-06-29T03:23:57.043Z,74.9
2016-06-29T03:24:57.058Z,74.77
2016-06-29T03:25:57.037Z,74.68
2016-06-29T03:26:57.046Z,74.43
2016-06-29T03:27:57.063Z,74.39
2016-06-29T03:28:57.065Z,74.39
2016-06-29T03:29:57.053Z,74.33
2016-06-29T03:30:57.045Z,74.29
2016-06-29T03:31:57.059Z,74.01
2016-06-29T03:32:57.066Z,74.48
2016-06-29T03:33:57.055Z,74.1
2016-06-29T03:34:57.071Z,74.29
2016-06-29T03:35:57.064Z,73.91
2016-06-29T03:36:57.062Z,74.39
2016-06-29T03:37:57.063Z,74.48
2016-06-29T03:38:57.066Z,74.29
2016-06-29T03:39:57.072Z,74.58
2016-06-29T03:40:57.065Z,74.19
2016-06-29T03:41:57.071Z,74.29
2016-06-29T03:42:57.065Z,74.39
2016-06-29T03:43:57.070Z,74.29
2016-06-29T03:44:57.086Z,74.48
2016-06-29T03:45:57.087Z,74.39
2016-06-29T03:46:57.098Z,74.33
2016-06-29T03:47:57.081Z,74.13
2016-06-29T03:48:57.085Z,73.85
2016-06-29T03:49:57.097Z,73.85
2016-06-29T03:50:57.079Z,74.13
2016-06-29T03:51:57.089Z,73.85
2016-06-29T03:52:57.087Z,74.04
2016-06-29T03:53:57.102Z,73.94
2016-06-29T03:54:57.097Z,73.94
2016-06-29T03:55:57.095Z,74.04
2016-06-29T03:56:57.099Z,73.56
2016-06-29T03:57:57.103Z,73.75
2016-06-29T03:58:57.098Z,73.66
2016-06-29T03:59:57.098Z,73.46
2016-06-29T04:00:56.509Z,73.66
2016-06-29T04:01:57.105Z,73.66
2016-06-29T04:02:57.113Z,74.04
2016-06-29T04:03:57.112Z,73.75
2016-06-29T04:04:57.115Z,73.85
2016-06-29T04:05:57.127Z,73.94
2016-06-29T04:06:57.107Z,74.43
2016-06-29T04:07:57.119Z,74.33
2016-06-29T04:08:57.112Z,74.43
2016-06-29T04:09:57.118Z,74.04
2016-06-29T04:10:57.118Z,73.94
2016-06-29T04:11:57.147Z,73.85
2016-06-29T04:12:57.138Z,73.56
2016-06-29T04:13:57.112Z,74.04
2016-06-29T04:14:57.133Z,73.66
2016-06-29T04:15:57.123Z,74.04
2016-06-29T04:16:57.131Z,73.66
2016-06-29T04:17:57.148Z,73.56
2016-06-29T04:18:57.131Z,73.98
2016-06-29T04:19:57.138Z,73.41
2016-06-29T04:20:57.141Z,73.6
2016-06-29T04:21:57.147Z,73.94
2016-06-29T04:22:57.151Z,73.6
2016-06-29T04:23:57.136Z,73.94
2016-06-29T04:24:57.150Z,73.88
2016-06-29T04:25:57.142Z,73.46
2016-06-29T04:26:57.152Z,73.31
2016-06-29T04:27:57.167Z,73.79
2016-06-29T04:28:57.172Z,73.69
2016-06-29T04:29:57.163Z,73.21
2016-06-29T04:30:57.161Z,73.41
2016-06-29T04:31:57.152Z,73.18
2016-06-29T04:32:57.166Z,74.17
2016-06-29T04:33:57.158Z,74.08
2016-06-29T04:34:57.158Z,73.98
2016-06-29T04:35:57.157Z,74.17
2016-06-29T04:36:57.172Z,74.55
2016-06-29T04:37:57.164Z,74.94
2016-06-29T04:38:57.175Z,74.75
2016-06-29T04:39:57.170Z,75.04
2016-06-29T04:40:57.170Z,75.71
2016-06-29T04:41:57.186Z,75.29
2016-06-29T04:42:57.175Z,75.62
2016-06-29T04:43:57.179Z,75.42
2016-06-29T04:44:57.196Z,75.38
2016-06-29T04:45:57.175Z,75.38
2016-06-29T04:46:57.184Z,75.81
2016-06-29T04:47:57.184Z,75.9
2016-06-29T04:48:57.176Z,75.9
2016-06-29T04:49:57.184Z,75.42
2016-06-29T04:50:57.182Z,75.32
2016-06-29T04:51:57.189Z,75.32
2016-06-29T04:52:57.198Z,75.32
2016-06-29T04:53:57.193Z,75.62
2016-06-29T04:54:57.205Z,75.23
2016-06-29T04:55:57.197Z,75.32
2016-06-29T04:56:57.194Z,75.13
2016-06-29T04:57:57.197Z,75.32
2016-06-29T04:58:57.207Z,75.13
2016-06-29T04:59:57.214Z,74.94
2016-06-29T05:00:57.207Z,74.65
2016-06-29T05:01:57.206Z,74.37
2016-06-29T05:02:57.229Z,73.69
2016-06-29T05:03:57.213Z,74.17
2016-06-29T05:04:57.446Z,73.63
2016-06-29T05:05:57.213Z,73.21
2016-06-29T05:06:57.221Z,73.44
2016-06-29T05:07:57.219Z,73.73
2016-06-29T05:08:57.238Z,73.63
2016-06-29T05:09:57.222Z,73.25
2016-06-29T05:10:57.225Z,73.35
2016-06-29T05:11:57.225Z,73.54
2016-06-29T05:12:57.235Z,73.83
2016-06-29T05:13:57.226Z,73.6
2016-06-29T05:14:57.232Z,72.77
2016-06-29T05:15:57.235Z,73.15
2016-06-29T05:16:57.230Z,72.86
2016-06-29T05:17:57.247Z,73.63
2016-06-29T05:18:57.248Z,73.73
2016-06-29T05:19:57.243Z,73.6
2016-06-29T05:20:57.245Z,73.63
2016-06-29T05:21:57.251Z,73.06
2016-06-29T05:22:57.251Z,73.35
2016-06-29T05:23:57.256Z,72.86
2016-06-29T05:24:57.249Z,73.35
2016-06-29T05:25:57.249Z,73.35
2016-06-29T05:26:57.254Z,72.38
2016-06-29T05:27:57.261Z,72.77
2016-06-29T05:28:57.266Z,72.86
2016-06-29T05:29:57.258Z,72.09
2016-06-29T05:30:57.277Z,72.58
2016-06-29T05:31:57.261Z,72.67
2016-06-29T05:32:57.279Z,72.58
2016-06-29T05:33:57.267Z,72.29
2016-06-29T05:34:57.283Z,72.29
2016-06-29T05:35:57.279Z,72.38
2016-06-29T05:36:57.273Z,72.29
2016-06-29T05:37:57.273Z,72.29
2016-06-29T05:38:57.291Z,72.13
2016-06-29T05:39:57.277Z,72
2016-06-29T05:40:57.337Z,72
2016-06-29T05:41:57.280Z,71.94
2016-06-29T05:42:57.288Z,71.75
2016-06-29T05:43:57.290Z,71.75
2016-06-29T05:44:57.295Z,71.91
2016-06-29T05:45:57.284Z,71.46
2016-06-29T05:46:57.288Z,71.61
2016-06-29T05:47:57.291Z,72
2016-06-29T05:48:57.300Z,72.13
2016-06-29T05:49:57.298Z,72
2016-06-29T05:50:57.297Z,71.33
2016-06-29T05:51:57.303Z,71.81
2016-06-29T05:52:57.309Z,71.61
2016-06-29T05:53:57.307Z,71.65
2016-06-29T05:54:57.308Z,71.08
2016-06-29T05:55:57.308Z,71.17
2016-06-29T05:56:57.336Z,71.08
2016-06-29T05:57:57.319Z,71.65
2016-06-29T05:58:57.326Z,71.55
2016-06-29T05:59:57.332Z,71.65
2016-06-29T06:00:57.314Z,71.65
2016-06-29T06:01:57.329Z,71.61
2016-06-29T06:02:57.363Z,72.09
2016-06-29T06:03:57.328Z,71.84
2016-06-29T06:04:57.338Z,72.38
2016-06-29T06:05:57.341Z,72.32
2016-06-29T06:06:57.323Z,72.9
2016-06-29T06:07:57.337Z,73.06
2016-06-29T06:08:57.366Z,72.42
2016-06-29T06:09:57.349Z,73.38
2016-06-29T06:10:57.353Z,72.8
2016-06-29T06:11:57.347Z,73.19
2016-06-29T06:12:57.346Z,73.09
2016-06-29T06:13:57.350Z,73
2016-06-29T06:14:57.341Z,73
2016-06-29T06:15:57.358Z,73.09
2016-06-29T06:16:57.350Z,73.28
2016-06-29T06:17:57.404Z,73.77
2016-06-29T06:18:57.358Z,73.86
2016-06-29T06:19:57.363Z,73.86
2016-06-29T06:20:57.356Z,74.05
2016-06-29T06:21:57.369Z,74.05
2016-06-29T06:22:57.361Z,74.34
2016-06-29T06:23:57.373Z,73.96
2016-06-29T06:24:57.364Z,74.19
2016-06-29T06:25:57.388Z,73.9
2016-06-29T06:26:57.371Z,73.8
2016-06-29T06:27:57.375Z,74.19
2016-06-29T06:28:57.378Z,73.9
2016-06-29T06:29:57.381Z,73.8
2016-06-29T06:30:57.380Z,73.71
2016-06-29T06:31:57.378Z,74.19
2016-06-29T06:32:57.392Z,73.8
2016-06-29T06:33:57.393Z,73.61
2016-06-29T06:34:57.385Z,73.8
2016-06-29T06:35:57.397Z,73.61
2016-06-29T06:36:57.389Z,73.16
2016-06-29T06:37:57.396Z,73.36
2016-06-29T06:38:57.406Z,73.16
2016-06-29T06:39:57.401Z,72.88
2016-06-29T06:40:57.405Z,72.78
2016-06-29T06:41:57.405Z,72.2
2016-06-29T06:42:57.407Z,71.72
2016-06-29T06:43:57.411Z,71.91
2016-06-29T06:44:57.406Z,71.62
2016-06-29T06:45:57.411Z,71.81
2016-06-29T06:46:57.410Z,71.24
2016-06-29T06:47:57.417Z,71.24
2016-06-29T06:48:57.420Z,70.89
2016-06-29T06:49:57.429Z,70.79
2016-06-29T06:50:57.422Z,70.56
2016-06-29T06:51:57.455Z,70.41
2016-06-29T06:52:57.431Z,70.47
2016-06-29T06:53:57.435Z,69.7
2016-06-29T06:54:57.432Z,69.7
2016-06-29T06:55:57.437Z,69.79
2016-06-29T06:56:57.436Z,69.89
2016-06-29T06:57:57.438Z,69.73
2016-06-29T06:58:57.449Z,69.73
2016-06-29T06:59:57.464Z,69.73
2016-06-29T07:00:57.452Z,69.45
2016-06-29T07:01:57.448Z,69.06
2016-06-29T07:02:57.459Z,68.96
2016-06-29T07:03:57.460Z,68.87
2016-06-29T07:04:57.453Z,69.06
2016-06-29T07:05:57.453Z,68.96
2016-06-29T07:06:57.458Z,69.35
2016-06-29T07:07:57.472Z,69.73
2016-06-29T07:08:57.464Z,69.64
2016-06-29T07:09:57.902Z,69.73
2016-06-29T07:10:57.474Z,70.31
2016-06-29T07:11:57.474Z,70.6
2016-06-29T07:12:57.466Z,70.31
2016-06-29T07:13:57.470Z,69.45
2016-06-29T07:14:57.485Z,69.54
2016-06-29T07:15:57.495Z,69.15
2016-06-29T07:16:57.492Z,68.87
2016-06-29T07:17:57.478Z,68.52
2016-06-29T07:18:57.479Z,68.32
2016-06-29T07:19:57.488Z,68.04
2016-06-29T07:20:57.722Z,68.42
2016-06-29T07:21:57.508Z,68.61
2016-06-29T07:22:57.486Z,68.32
2016-06-29T07:23:57.506Z,68.61
2016-06-29T07:24:57.499Z,68.58
2016-06-29T07:25:57.505Z,68.58
2016-06-29T07:26:57.504Z,69.06
2016-06-29T07:27:57.529Z,69.35
2016-06-29T07:28:57.523Z,69.93
2016-06-29T07:29:57.512Z,69.64
2016-06-29T07:30:57.521Z,69.64
2016-06-29T07:31:57.522Z,69.73
2016-06-29T07:32:57.524Z,69.73
2016-06-29T07:33:57.524Z,69.64
2016-06-29T07:34:57.530Z,70.31
2016-06-29T07:35:57.542Z,70.5
2016-06-29T07:36:57.526Z,70.12
2016-06-29T07:37:57.530Z,70.31
2016-06-29T07:38:57.787Z,70.7
2016-06-29T07:39:57.538Z,70.12
2016-06-29T07:40:57.578Z,70.5
2016-06-29T07:41:57.544Z,70.7
2016-06-29T07:42:57.603Z,70.6
2016-06-29T07:43:57.548Z,70.02
2016-06-29T07:44:57.551Z,70.35
2016-06-29T07:45:57.554Z,70.64
2016-06-29T07:46:57.555Z,69.77
2016-06-29T07:47:57.558Z,69.77
2016-06-29T07:48:57.566Z,70.35
2016-06-29T07:49:57.571Z,70.44
2016-06-29T07:50:57.565Z,69.77
2016-06-29T07:51:57.586Z,69.87
2016-06-29T07:52:57.571Z,69.38
2016-06-29T07:53:57.572Z,69.48
2016-06-29T07:54:57.570Z,69.09
2016-06-29T07:55:57.581Z,69.23
2016-06-29T07:56:57.579Z,68.55
2016-06-29T07:57:57.586Z,68.84
2016-06-29T07:58:57.599Z,67.88
2016-06-29T07:59:57.597Z,67.78
2016-06-29T08:00:57.599Z,67.4
2016-06-29T08:01:57.598Z,66.94
2016-06-29T08:02:57.599Z,66.36
2016-06-29T08:03:57.598Z,66.56
2016-06-29T08:04:57.614Z,65.88
2016-06-29T08:05:57.620Z,65.59
2016-06-29T08:06:57.623Z,65.47
2016-06-29T08:07:57.620Z,66.17
2016-06-29T08:08:57.606Z,66.08
2016-06-29T08:09:57.620Z,65.78
2016-06-29T08:10:57.621Z,65.3
2016-06-29T08:11:57.626Z,64.63
2016-06-29T08:12:57.618Z,64.08
2016-06-29T08:13:57.622Z,63.5
2016-06-29T08:14:57.629Z,62.86
2016-06-29T08:15:57.626Z,61.7
2016-06-29T08:16:57.638Z,61.05
2016-06-29T08:17:57.705Z,59.6
2016-06-29T08:18:57.641Z,58.8
2016-06-29T08:19:57.639Z,57.37
2016-06-29T08:20:57.043Z,55
2016-06-29T08:21:57.651Z,54.06
2016-06-29T08:22:57.650Z,52.54
2016-06-29T08:23:57.662Z,51.5
2016-06-29T08:24:57.664Z,50.94
2016-06-29T08:25:57.660Z,49.99
2016-06-29T08:26:57.675Z,47.71
2016-06-29T08:27:57.673Z,46.37
2016-06-29T08:28:57.678Z,44.96
2016-06-29T08:29:57.685Z,44.2
2016-06-29T08:30:57.678Z,43.44
2016-06-29T08:31:57.679Z,42.18
2016-06-29T08:32:57.688Z,41.52
2016-06-29T08:33:57.691Z,41.13
2016-06-29T08:34:57.694Z,38.92
2016-06-29T08:35:57.705Z,36.44
2016-06-29T08:36:57.692Z,33.17
2016-06-29T08:37:57.712Z,31.67
2016-06-29T08:38:57.724Z,30.62
2016-06-29T08:39:57.720Z,29.57
2016-06-29T08:40:57.767Z,28.5
2016-06-29T08:41:57.727Z,28.4
2016-06-29T08:42:57.749Z,28.29
2016-06-29T08:43:57.731Z,28.09
2016-06-29T08:44:57.743Z,28.19
2016-06-29T08:45:57.747Z,28.08
2016-06-29T08:46:57.758Z,26.81
2016-06-29T08:47:57.813Z,25.66
2016-06-29T08:48:57.752Z,25.08
2016-06-29T08:49:57.762Z,24.99
2016-06-29T08:50:57.762Z,24.8
2016-06-29T08:51:57.778Z,25.08
2016-06-29T08:52:57.782Z,25.37
2016-06-29T08:53:57.780Z,25.35
2016-06-29T08:54:57.778Z,25.63
2016-06-29T08:55:57.793Z,25.82
2016-06-29T08:56:57.800Z,25.33
2016-06-29T08:57:57.801Z,25.63
2016-06-29T08:58:57.803Z,24.76
2016-06-29T08:59:57.802Z,24.48
2016-06-29T09:00:57.827Z,24.18
2016-06-29T09:01:57.813Z,24.38
2016-06-29T09:02:57.824Z,24.58
2016-06-29T09:03:57.830Z,24.87
2016-06-29T09:04:57.827Z,25.26
2016-06-29T09:05:57.835Z,25.73
2016-06-29T09:06:57.850Z,25.63
2016-06-29T09:07:57.845Z,24.96
2016-06-29T09:08:57.889Z,24.57
2016-06-29T09:09:57.863Z,24.08
2016-06-29T09:10:57.876Z,23.72
2016-06-29T09:11:57.882Z,23.22
2016-06-29T09:12:57.868Z,23.43
2016-06-29T09:13:57.891Z,23.14
2016-06-29T09:14:57.884Z,22.64
2016-06-29T09:15:57.897Z,22.55
2016-06-29T09:16:57.913Z,22.25
2016-06-29T09:17:57.951Z,21.97
2016-06-29T09:18:57.903Z,21.18
2016-06-29T09:19:57.907Z,20.89
2016-06-29T09:20:57.918Z,20.21
2016-06-29T09:21:57.918Z,20.01
2016-06-29T09:22:57.927Z,20.22
2016-06-29T09:23:57.938Z,20.03
2016-06-29T09:24:57.933Z,19.93
2016-06-29T09:25:57.941Z,19.93
2016-06-29T09:26:57.948Z,19.65
2016-06-29T09:27:57.966Z,19.55
2016-06-29T09:28:57.953Z,19.74
2016-06-29T09:29:57.953Z,19.54
2016-06-29T09:30:57.964Z,19.05
2016-06-29T09:31:57.965Z,18.27
2016-06-29T09:32:57.981Z,18.08
2016-06-29T09:33:57.995Z,17.4
2016-06-29T09:34:57.995Z,17.79
2016-06-29T09:35:57.990Z,18.27
2016-06-29T09:36:58.004Z,18.66
2016-06-29T09:37:58.014Z,19.34
2016-06-29T09:38:58.044Z,20.21
2016-06-29T09:39:58.101Z,21.08
2016-06-29T09:40:58.031Z,21.45
2016-06-29T09:41:58.040Z,22.03
2016-06-29T09:42:58.034Z,22.61
2016-06-29T09:43:58.049Z,22.31
2016-06-29T09:44:58.047Z,22.6
2016-06-29T09:45:58.054Z,23.38
2016-06-29T09:46:58.062Z,23.57
2016-06-29T09:47:58.056Z,23.36
2016-06-29T09:48:58.072Z,23.38
2016-06-29T09:49:58.075Z,23.47
2016-06-29T09:50:58.081Z,23.28
2016-06-29T09:51:58.079Z,23.38
2016-06-29T09:52:58.115Z,23.47
2016-06-29T09:53:58.079Z,23.28
2016-06-29T09:54:58.102Z,23.67
2016-06-29T09:55:58.108Z,23.57
2016-06-29T09:56:58.099Z,23.57
2016-06-29T09:57:57.512Z,24.25
2016-06-29T09:58:58.147Z,24.25
2016-06-29T09:59:58.141Z,25.02
2016-06-29T10:00:58.150Z,25.4
2016-06-29T10:01:58.146Z,25.49
2016-06-29T10:02:58.146Z,26.16
2016-06-29T10:03:58.149Z,26.83
2016-06-29T10:04:58.144Z,27.01
2016-06-29T10:05:58.149Z,27.49
2016-06-29T10:06:58.157Z,27.97
2016-06-29T10:07:58.163Z,28.06
2016-06-29T10:08:58.182Z,28.64
2016-06-29T10:09:58.181Z,29.13
2016-06-29T10:10:58.183Z,29.6
2016-06-29T10:11:58.185Z,30.27
2016-06-29T10:12:58.194Z,30.84
2016-06-29T10:13:58.203Z,31.82
2016-06-29T10:14:58.214Z,31.8
2016-06-29T10:16:20.801Z,32.96
2016-06-29T10:16:58.211Z,32.96
2016-06-29T10:17:58.223Z,32.84
2016-06-29T10:18:58.224Z,33.04
2016-06-29T10:19:58.257Z,33.53
2016-06-29T10:20:58.242Z,34.31
2016-06-29T10:21:58.238Z,34.01
2016-06-29T10:22:58.251Z,34.09
2016-06-29T10:23:58.252Z,34.29
2016-06-29T10:24:58.246Z,34.66
2016-06-29T10:25:58.248Z,35.25
2016-06-29T10:26:58.259Z,35.15
2016-06-29T10:27:58.262Z,35.42
2016-06-29T10:28:58.271Z,36.2
2016-06-29T10:29:58.274Z,36
2016-06-29T10:30:58.284Z,36.08
2016-06-29T10:31:58.281Z,36.77
2016-06-29T10:32:58.300Z,37.06
2016-06-29T10:33:58.309Z,37.62
2016-06-29T10:34:58.299Z,37.72
2016-06-29T10:35:58.310Z,37.62
2016-06-29T10:36:58.310Z,37.62
2016-06-29T10:37:58.324Z,38.7
2016-06-29T10:38:58.315Z,38.21
2016-06-29T10:39:58.327Z,38.79
2016-06-29T10:40:58.330Z,38.29
2016-06-29T10:41:58.331Z,38.77
2016-06-29T10:42:58.342Z,38.67
2016-06-29T10:43:58.349Z,38.96
2016-06-29T10:44:58.395Z,39.06
2016-06-29T10:45:58.349Z,38.67
2016-06-29T10:46:58.356Z,38.39
2016-06-29T10:47:58.357Z,38.01
2016-06-29T10:48:58.376Z,38.01
2016-06-29T10:49:58.370Z,38.4
2016-06-29T10:50:58.371Z,38.19
2016-06-29T10:51:58.390Z,38.4
2016-06-29T10:52:58.383Z,38.6
2016-06-29T10:53:58.386Z,37.72
2016-06-29T10:54:58.394Z,37.92
2016-06-29T10:55:58.399Z,38.01
2016-06-29T10:56:58.415Z,37.43
2016-06-29T10:57:58.436Z,37.72
2016-06-29T10:58:58.444Z,37.72
2016-06-29T10:59:58.415Z,37.92
2016-06-29T11:00:58.442Z,37.35
2016-06-29T11:01:58.440Z,37.45
2016-06-29T11:02:58.469Z,37.45
2016-06-29T11:03:58.431Z,37.54
2016-06-29T11:04:58.435Z,37.64
2016-06-29T11:05:58.432Z,37.06
2016-06-29T11:06:58.466Z,36.57
2016-06-29T11:07:58.450Z,36.77
2016-06-29T11:08:58.452Z,36.67
2016-06-29T11:09:58.461Z,36.77
2016-06-29T11:10:58.467Z,36.67
2016-06-29T11:11:58.480Z,36.18
2016-06-29T11:12:58.475Z,35.89
2016-06-29T11:13:58.481Z,35.7
2016-06-29T11:14:58.481Z,36.08
2016-06-29T11:15:58.482Z,35.8
2016-06-29T11:16:58.504Z,35.41
2016-06-29T11:17:58.493Z,35.8
2016-06-29T11:18:58.501Z,35.99
2016-06-29T11:19:58.497Z,36.38
2016-06-29T11:20:58.510Z,36.36
2016-06-29T11:21:58.520Z,36.67
2016-06-29T11:22:58.514Z,36.77
2016-06-29T11:23:58.531Z,37.72
2016-06-29T11:24:58.520Z,37.62
2016-06-29T11:25:58.527Z,37.52
2016-06-29T11:26:58.529Z,37.14
2016-06-29T11:27:58.529Z,37.34
2016-06-29T11:28:58.537Z,37.92
2016-06-29T11:29:58.545Z,38.29
2016-06-29T11:30:58.547Z,38.39
2016-06-29T11:31:58.562Z,38.29
2016-06-29T11:32:58.564Z,38.56
2016-06-29T11:33:58.557Z,38.56
2016-06-29T11:34:58.566Z,38.57
2016-06-29T11:35:58.577Z,37.8
2016-06-29T11:36:58.570Z,38.39
2016-06-29T11:37:58.580Z,37.9
2016-06-29T11:38:58.580Z,36.73
2016-06-29T11:39:58.590Z,36.46
2016-06-29T11:40:58.598Z,36.75
2016-06-29T11:41:58.594Z,36.36
2016-06-29T11:42:58.602Z,36.75
2016-06-29T11:43:58.614Z,36.65
2016-06-29T11:44:58.613Z,36.65
2016-06-29T11:45:58.611Z,37.14
2016-06-29T11:46:58.627Z,36.75
2016-06-29T11:47:58.638Z,36.36
2016-06-29T11:48:58.634Z,36.36
2016-06-29T11:49:58.649Z,36.08
2016-06-29T11:50:58.641Z,36.38
2016-06-29T11:51:58.666Z,36.75
2016-06-29T11:52:58.647Z,37.34
2016-06-29T11:53:58.649Z,37.62
2016-06-29T11:54:58.661Z,37.24
2016-06-29T11:55:58.658Z,37.34
2016-06-29T11:56:58.668Z,37.43
2016-06-29T11:57:58.668Z,37.92
2016-06-29T11:58:58.670Z,38.31
2016-06-29T11:59:58.706Z,38.57
2016-06-29T12:00:58.681Z,38.67
2016-06-29T12:01:58.682Z,38.67
2016-06-29T12:02:58.680Z,37.9
2016-06-29T12:03:58.697Z,37.99
2016-06-29T12:04:58.690Z,38.09
2016-06-29T12:05:58.727Z,37.41
2016-06-29T12:06:58.706Z,37.99
2016-06-29T12:07:58.709Z,37.99
2016-06-29T12:08:58.708Z,37.22
2016-06-29T12:09:58.717Z,38.19
2016-06-29T12:10:58.711Z,38.29
2016-06-29T12:11:58.724Z,38.48
2016-06-29T12:12:58.727Z,38.39
2016-06-29T12:13:58.730Z,38.19
2016-06-29T12:14:58.728Z,38.87
2016-06-29T12:15:58.733Z,38.39
2016-06-29T12:16:58.749Z,38.19
2016-06-29T12:17:58.740Z,38.57
2016-06-29T12:18:58.742Z,38.48
2016-06-29T12:19:58.751Z,38.29
2016-06-29T12:20:58.767Z,37.9
2016-06-29T12:21:58.771Z,37.99
2016-06-29T12:22:58.764Z,37.9
2016-06-29T12:23:58.766Z,37.8
2016-06-29T12:24:58.769Z,37.99
2016-06-29T12:25:58.783Z,38.77
2016-06-29T12:26:58.791Z,38.29
2016-06-29T12:27:58.792Z,38.48
2016-06-29T12:28:58.794Z,38.57
2016-06-29T12:29:58.799Z,38.39
2016-06-29T12:30:58.826Z,38.29
2016-06-29T12:31:58.806Z,38.39
2016-06-29T12:32:58.806Z,38.48
2016-06-29T12:33:58.806Z,38.87
2016-06-29T12:34:58.862Z,38.77
2016-06-29T12:35:58.822Z,38.27
2016-06-29T12:36:58.827Z,38.46
2016-06-29T12:37:58.831Z,38.75
2016-06-29T12:38:58.826Z,38.56
2016-06-29T12:39:58.832Z,38.65
2016-06-29T12:40:58.846Z,38.56
2016-06-29T12:41:58.833Z,38.65
2016-06-29T12:42:58.847Z,38.17
2016-06-29T12:43:58.843Z,38.37
2016-06-29T12:44:58.847Z,38.27
2016-06-29T12:45:58.861Z,38.56
2016-06-29T12:46:58.863Z,38.65
2016-06-29T12:47:58.909Z,38.75
2016-06-29T12:48:58.880Z,38.37
2016-06-29T12:49:58.877Z,38.39
2016-06-29T12:50:58.904Z,38.77
2016-06-29T12:51:58.907Z,38.77
2016-06-29T12:52:58.890Z,38.57
2016-06-29T12:53:58.887Z,38.17
2016-06-29T12:54:58.892Z,38.39
2016-06-29T12:55:58.903Z,38.87